createdAt,value
2023-01-28T00:00:24.584Z,24.60
2023-01-28T00:02:54.117Z,24.59
2023-01-28T00:05:24.979Z,24.58
2023-01-28T00:07:54.607Z,24.55
2023-01-28T00:10:24.251Z,24.55
2023-01-28T00:12:56.830Z,24.53
2023-01-28T00:15:26.470Z,24.50
2023-01-28T00:17:56.680Z,24.50
2023-01-28T00:20:26.137Z,24.49
2023-01-28T00:22:55.627Z,24.48
2023-01-28T00:25:25.138Z,24.46
2023-01-28T00:28:15.120Z,24.45
2023-01-28T00:30:44.866Z,24.44
2023-01-28T00:33:14.212Z,24.41
2023-01-28T00:35:43.587Z,24.40
2023-01-28T00:38:13.141Z,24.39
2023-01-28T00:40:42.632Z,24.37
2023-01-28T00:43:12.433Z,24.34
2023-01-28T00:45:41.915Z,24.33
2023-01-28T00:48:14.953Z,24.30
2023-01-28T00:50:44.712Z,24.27
2023-01-28T00:53:14.253Z,24.26
2023-01-28T00:55:44.060Z,24.25
2023-01-28T00:58:13.520Z,24.23
2023-01-28T01:00:42.771Z,24.22
2023-01-28T01:03:12.091Z,24.21
2023-01-28T01:05:42.857Z,24.19
2023-01-28T01:08:12.687Z,24.17
2023-01-28T01:10:42.274Z,24.17
2023-01-28T01:13:11.563Z,24.15
2023-01-28T01:18:15.956Z,24.12
2023-01-28T01:20:46.563Z,24.10
2023-01-28T01:23:16.382Z,24.13
2023-01-28T01:25:45.965Z,24.17
2023-01-28T01:28:16.597Z,24.17
2023-01-28T01:31:06.426Z,24.23
2023-01-28T01:33:35.783Z,24.25
2023-01-28T01:36:05.133Z,24.23
2023-01-28T01:38:34.645Z,24.23
2023-01-28T01:41:04.324Z,24.21
2023-01-28T01:44:10.845Z,24.19
2023-01-28T01:46:47.839Z,24.18
2023-01-28T01:49:40.577Z,24.15
2023-01-28T01:52:11.053Z,24.14
2023-01-28T01:54:40.749Z,24.14
2023-01-28T01:57:30.684Z,24.11
2023-01-28T02:00:01.629Z,24.08
2023-01-28T02:02:31.252Z,24.08
2023-01-28T02:05:00.617Z,24.07
2023-01-28T02:07:30.362Z,24.05
2023-01-28T02:09:59.829Z,24.04
2023-01-28T02:12:30.779Z,24.02
2023-01-28T02:15:01.483Z,24.00
2023-01-28T02:17:31.143Z,24.00
2023-01-28T02:20:05.285Z,23.99
2023-01-28T02:22:39.260Z,24.01
2023-01-28T02:25:13.066Z,24.04
2023-01-28T02:28:00.870Z,24.07
2023-01-28T02:30:31.907Z,24.10
2023-01-28T02:33:02.336Z,24.14
2023-01-28T02:35:33.161Z,24.17
2023-01-28T02:38:10.382Z,24.20
2023-01-28T02:40:42.445Z,24.22
2023-01-28T02:43:13.601Z,24.26
2023-01-28T02:46:02.043Z,24.29
2023-01-28T02:48:31.288Z,24.32
2023-01-28T02:51:05.250Z,24.37
2023-01-28T02:53:58.034Z,24.40
2023-01-28T02:56:30.267Z,24.44
2023-01-28T02:59:08.433Z,24.47
2023-01-28T03:01:39.562Z,24.49
2023-01-28T03:04:19.217Z,24.48
2023-01-28T03:06:49.882Z,24.45
2023-01-28T03:09:25.605Z,24.42
2023-01-28T03:12:14.057Z,24.41
2023-01-28T03:15:00.976Z,24.40
2023-01-28T03:17:49.369Z,24.39
2023-01-28T03:20:36.823Z,24.37
2023-01-28T03:23:24.552Z,24.33
2023-01-28T03:26:12.249Z,24.32
2023-01-28T03:28:59.657Z,24.30
2023-01-28T03:31:47.905Z,24.29
2023-01-28T03:34:34.969Z,24.27
2023-01-28T03:37:04.595Z,24.25
2023-01-28T03:39:34.019Z,24.23
2023-01-28T03:42:04.739Z,24.22
2023-01-28T03:44:51.339Z,24.21
2023-01-28T03:47:24.712Z,24.22
2023-01-28T03:49:55.443Z,24.25
2023-01-28T03:52:29.344Z,24.30
2023-01-28T03:54:58.835Z,24.33
2023-01-28T03:57:28.652Z,24.39
2023-01-28T03:59:58.270Z,24.41
2023-01-28T04:02:28.266Z,24.47
2023-01-28T04:04:59.067Z,24.51
2023-01-28T04:07:37.652Z,24.47
2023-01-28T04:10:06.535Z,24.45
2023-01-28T04:12:36.181Z,24.43
2023-01-28T04:15:08.429Z,24.41
2023-01-28T04:17:38.498Z,24.39
2023-01-28T04:20:08.476Z,24.38
2023-01-28T04:22:38.067Z,24.35
2023-01-28T04:25:08.194Z,24.33
2023-01-28T04:27:37.594Z,24.32
2023-01-28T04:30:07.425Z,24.30
2023-01-28T04:32:36.939Z,24.29
2023-01-28T04:35:06.661Z,24.28
2023-01-28T04:37:36.396Z,24.27
2023-01-28T04:40:30.732Z,24.28
2023-01-28T04:43:00.337Z,24.26
2023-01-28T04:45:29.671Z,24.24
2023-01-28T04:47:59.448Z,24.23
2023-01-28T04:50:28.868Z,24.22
2023-01-28T04:52:58.841Z,24.19
2023-01-28T04:55:28.510Z,24.16
2023-01-28T04:57:58.523Z,24.18
2023-01-28T05:00:28.021Z,24.15
2023-01-28T05:02:57.894Z,24.14
2023-01-28T05:05:27.456Z,24.13
2023-01-28T05:07:57.165Z,24.11
2023-01-28T05:10:26.692Z,24.08
2023-01-28T05:12:56.486Z,24.06
2023-01-28T05:15:25.928Z,24.05
2023-01-28T05:17:57.396Z,24.04
2023-01-28T05:20:27.073Z,24.01
2023-01-28T05:22:56.651Z,24.00
2023-01-28T05:25:26.336Z,23.99
2023-01-28T05:27:55.708Z,23.97
2023-01-28T05:30:25.138Z,23.96
2023-01-28T05:32:58.091Z,23.93
2023-01-28T05:35:27.599Z,23.91
2023-01-28T05:37:57.137Z,23.90
2023-01-28T05:40:26.748Z,23.88
2023-01-28T05:42:56.142Z,23.87
2023-01-28T05:45:25.803Z,23.86
2023-01-28T05:47:55.562Z,23.83
2023-01-28T05:50:25.578Z,23.81
2023-01-28T05:52:57.777Z,23.77
2023-01-28T05:55:47.506Z,23.77
2023-01-28T05:58:17.163Z,23.76
2023-01-28T06:00:47.779Z,23.74
2023-01-28T06:03:17.609Z,23.72
2023-01-28T06:05:47.134Z,23.71
2023-01-28T06:08:16.819Z,23.70
2023-01-28T06:10:46.229Z,23.66
2023-01-28T06:13:15.713Z,23.65
2023-01-28T06:15:45.359Z,23.64
2023-01-28T06:18:14.998Z,23.62
2023-01-28T06:20:44.570Z,23.60
2023-01-28T06:23:14.389Z,23.59
2023-01-28T06:25:44.133Z,23.56
2023-01-28T06:28:13.952Z,23.56
2023-01-28T06:30:43.707Z,23.53
2023-01-28T06:33:13.366Z,23.50
2023-01-28T06:35:42.758Z,23.49
2023-01-28T06:38:12.311Z,23.47
2023-01-28T06:40:41.991Z,23.45
2023-01-28T06:43:11.492Z,23.43
2023-01-28T06:45:41.180Z,23.41
2023-01-28T06:48:11.779Z,23.41
2023-01-28T06:50:41.350Z,23.38
2023-01-28T06:53:10.977Z,23.37
2023-01-28T06:55:40.348Z,23.35
2023-01-28T06:58:12.313Z,23.32
2023-01-28T07:00:41.688Z,23.31
2023-01-28T07:03:11.051Z,23.29
2023-01-28T07:05:40.746Z,23.28
2023-01-28T07:08:10.183Z,23.25
2023-01-28T07:10:39.758Z,23.23
2023-01-28T07:13:09.379Z,23.21
2023-01-28T07:15:38.994Z,23.19
2023-01-28T07:18:08.581Z,23.17
2023-01-28T07:20:37.867Z,23.16
2023-01-28T07:23:07.741Z,23.15
2023-01-28T07:25:37.056Z,23.13
2023-01-28T07:28:06.774Z,23.10
2023-01-28T07:30:36.439Z,23.09
2023-01-28T07:33:06.017Z,23.07
2023-01-28T07:35:37.034Z,23.05
2023-01-28T07:38:06.298Z,23.02
2023-01-28T07:40:35.987Z,22.98
2023-01-28T07:43:05.761Z,22.98
2023-01-28T07:45:35.593Z,22.96
2023-01-28T07:48:05.987Z,22.95
2023-01-28T07:50:36.269Z,22.93
2023-01-28T07:53:06.372Z,22.91
2023-01-28T07:55:37.217Z,22.90
2023-01-28T07:58:08.024Z,22.87
2023-01-28T08:00:37.893Z,22.86
2023-01-28T08:03:08.157Z,22.83
2023-01-28T08:05:42.371Z,22.82
2023-01-28T08:08:11.995Z,22.78
2023-01-28T08:10:41.640Z,22.77
2023-01-28T08:13:12.581Z,22.75
2023-01-28T08:16:03.660Z,22.74
2023-01-28T08:18:33.252Z,22.73
2023-01-28T08:21:02.889Z,22.71
2023-01-28T08:26:08.143Z,22.66
2023-01-28T08:28:37.886Z,22.64
2023-01-28T08:31:07.922Z,22.64
2023-01-28T08:33:37.690Z,22.63
2023-01-28T08:36:07.533Z,22.62
2023-01-28T08:38:37.332Z,22.59
2023-01-28T08:41:07.145Z,22.57
2023-01-28T08:43:36.742Z,22.55
2023-01-28T08:46:08.358Z,22.54
2023-01-28T08:48:38.982Z,22.51
2023-01-28T08:51:08.540Z,22.49
2023-01-28T08:53:38.102Z,22.49
2023-01-28T08:56:08.063Z,22.46
2023-01-28T08:58:37.595Z,22.45
2023-01-28T09:01:07.767Z,22.43
2023-01-28T09:03:37.305Z,22.41
2023-01-28T09:06:07.047Z,22.40
2023-01-28T09:08:36.507Z,22.39
2023-01-28T09:11:10.411Z,22.37
2023-01-28T09:13:40.051Z,22.35
2023-01-28T09:16:10.067Z,22.33
2023-01-28T09:18:39.815Z,22.33
2023-01-28T09:21:09.838Z,22.30
2023-01-28T09:23:42.549Z,22.27
2023-01-28T09:26:12.015Z,22.26
2023-01-28T09:28:41.648Z,22.25
2023-01-28T09:31:14.183Z,22.22
2023-01-28T09:33:43.803Z,22.21
2023-01-28T09:36:16.489Z,22.20
2023-01-28T09:38:46.227Z,22.18
2023-01-28T09:41:20.515Z,22.14
2023-01-28T09:43:55.713Z,22.14
2023-01-28T09:46:25.974Z,22.11
2023-01-28T09:48:56.069Z,22.09
2023-01-28T09:51:26.851Z,22.08
2023-01-28T09:53:56.301Z,22.07
2023-01-28T09:56:28.757Z,22.06
2023-01-28T09:58:58.899Z,22.07
2023-01-28T10:01:38.516Z,22.07
2023-01-28T10:04:27.554Z,22.08
2023-01-28T10:07:07.497Z,22.07
2023-01-28T10:09:42.737Z,22.06
2023-01-28T10:12:20.024Z,22.06
2023-01-28T10:14:53.653Z,22.05
2023-01-28T10:17:27.078Z,22.04
2023-01-28T10:19:58.195Z,22.03
2023-01-28T10:22:29.213Z,22.03
2023-01-28T10:25:06.877Z,22.00
2023-01-28T10:27:39.607Z,22.00
2023-01-28T10:30:21.878Z,21.99
2023-01-28T10:33:05.068Z,21.98
2023-01-28T10:35:36.026Z,21.98
2023-01-28T10:38:07.950Z,21.96
2023-01-28T10:40:37.951Z,21.96
2023-01-28T10:43:07.512Z,21.96
2023-01-28T10:45:41.086Z,21.94
2023-01-28T10:48:18.345Z,21.94
2023-01-28T10:50:54.812Z,21.93
2023-01-28T10:53:27.134Z,21.93
2023-01-28T10:55:57.811Z,21.89
2023-01-28T10:58:27.966Z,21.89
2023-01-28T11:00:58.700Z,21.88
2023-01-28T11:03:31.842Z,21.87
2023-01-28T11:06:01.303Z,21.85
2023-01-28T11:08:31.109Z,21.84
2023-01-28T11:11:02.150Z,21.84
2023-01-28T11:13:31.948Z,21.83
2023-01-28T11:16:08.015Z,21.82
2023-01-28T11:18:45.119Z,21.80
2023-01-28T11:21:21.576Z,21.79
2023-01-28T11:23:59.443Z,21.77
2023-01-28T11:26:35.325Z,21.75
2023-01-28T11:29:04.737Z,21.75
2023-01-28T11:31:37.942Z,21.73
2023-01-28T11:34:08.380Z,21.72
2023-01-28T11:36:37.917Z,21.70
2023-01-28T11:39:08.445Z,21.69
2023-01-28T11:41:38.462Z,21.67
2023-01-28T11:44:16.007Z,21.68
2023-01-28T11:46:54.141Z,21.65
2023-01-28T11:49:34.602Z,21.64
2023-01-28T11:52:06.026Z,21.63
2023-01-28T11:54:36.963Z,21.66
2023-01-28T11:57:25.987Z,21.69
2023-01-28T11:59:57.398Z,21.73
2023-01-28T12:02:34.694Z,21.78
2023-01-28T12:05:05.822Z,21.86
2023-01-28T12:07:36.459Z,21.94
2023-01-28T12:10:13.312Z,22.02
2023-01-28T12:12:47.490Z,22.10
2023-01-28T12:15:21.186Z,22.18
2023-01-28T12:18:08.684Z,22.26
2023-01-28T12:20:58.536Z,22.34
2023-01-28T12:23:38.658Z,22.43
2023-01-28T12:26:12.951Z,22.52
2023-01-28T12:28:45.231Z,22.61
2023-01-28T12:31:29.123Z,22.70
2023-01-28T12:34:11.854Z,22.77
2023-01-28T12:36:42.559Z,22.85
2023-01-28T12:39:25.741Z,22.92
2023-01-28T12:42:14.762Z,23.01
2023-01-28T12:44:48.284Z,23.08
2023-01-28T12:47:18.991Z,23.14
2023-01-28T12:49:49.827Z,23.19
2023-01-28T12:52:24.375Z,23.23
2023-01-28T12:55:12.053Z,23.28
2023-01-28T12:57:41.591Z,23.33
2023-01-28T13:00:28.345Z,23.39
2023-01-28T13:03:02.464Z,23.48
2023-01-28T13:05:33.734Z,23.55
2023-01-28T13:08:07.100Z,23.60
2023-01-28T13:10:46.013Z,23.65
2023-01-28T13:13:20.233Z,23.70
2023-01-28T13:15:49.882Z,23.75
2023-01-28T13:18:35.668Z,23.78
2023-01-28T13:23:55.843Z,23.87
2023-01-28T13:26:46.561Z,23.91
2023-01-28T13:29:48.442Z,23.94
2023-01-28T13:32:28.477Z,24.02
2023-01-28T13:35:02.830Z,24.07
2023-01-28T13:37:39.160Z,24.10
2023-01-28T13:40:27.493Z,24.16
2023-01-28T13:43:00.990Z,24.19
2023-01-28T13:45:51.007Z,24.23
2023-01-28T13:48:28.138Z,24.27
2023-01-28T13:50:57.817Z,24.31
2023-01-28T13:53:41.284Z,24.36
2023-01-28T13:56:11.948Z,24.39
2023-01-28T13:58:43.208Z,24.42
2023-01-28T14:01:14.275Z,24.47
2023-01-28T14:04:00.497Z,24.51
2023-01-28T14:06:32.706Z,24.54
2023-01-28T14:09:09.859Z,24.58
2023-01-28T14:11:47.036Z,24.61
2023-01-28T14:14:29.949Z,24.65
2023-01-28T14:17:00.279Z,24.69
2023-01-28T14:19:30.824Z,24.72
2023-01-28T14:22:00.357Z,24.75
2023-01-28T14:24:30.130Z,24.80
2023-01-28T14:27:12.892Z,24.83
2023-01-28T14:29:55.782Z,24.86
2023-01-28T14:32:28.080Z,24.89
2023-01-28T14:34:57.819Z,24.91
2023-01-28T14:37:29.013Z,24.96
2023-01-28T14:40:02.597Z,25.00
2023-01-28T14:42:45.442Z,25.03
2023-01-28T14:45:16.151Z,25.06
2023-01-28T14:47:50.103Z,25.03
2023-01-28T14:50:30.111Z,25.01
2023-01-28T14:53:04.066Z,24.99
2023-01-28T14:55:47.387Z,24.98
2023-01-28T14:58:18.449Z,24.97
2023-01-28T15:00:49.279Z,24.95
2023-01-28T15:03:26.877Z,24.93
2023-01-28T15:05:50.752Z,24.91
2023-01-28T15:08:23.520Z,24.88
2023-01-28T15:10:53.929Z,24.86
2023-01-28T15:13:25.450Z,24.85
2023-01-28T15:15:56.066Z,24.83
2023-01-28T15:18:26.969Z,24.81
2023-01-28T15:20:56.654Z,24.79
2023-01-28T15:23:38.683Z,24.77
2023-01-28T15:26:24.652Z,24.74
2023-01-28T15:28:54.902Z,24.72
2023-01-28T15:31:29.120Z,24.70
2023-01-28T15:33:59.212Z,24.69
2023-01-28T15:36:28.608Z,24.68
2023-01-28T15:38:58.027Z,24.66
2023-01-28T15:41:28.833Z,24.65
2023-01-28T15:43:59.598Z,24.63
2023-01-28T15:46:28.844Z,24.61
2023-01-28T15:49:02.773Z,24.61
2023-01-28T15:51:35.251Z,24.58
2023-01-28T15:54:06.179Z,24.57
2023-01-28T15:56:35.983Z,24.56
2023-01-28T15:59:22.240Z,24.53
2023-01-28T16:01:51.559Z,24.52
2023-01-28T16:04:27.798Z,24.51
2023-01-28T16:06:57.417Z,24.49
2023-01-28T16:09:30.663Z,24.48
2023-01-28T16:12:13.658Z,24.45
2023-01-28T16:14:44.343Z,24.44
2023-01-28T16:17:13.459Z,24.43
2023-01-28T16:19:50.247Z,24.42
2023-01-28T16:22:23.493Z,24.35
2023-01-28T16:24:54.305Z,24.39
2023-01-28T16:27:28.067Z,24.39
2023-01-28T16:29:59.697Z,24.42
2023-01-28T16:32:39.064Z,24.48
2023-01-28T16:35:15.940Z,24.51
2023-01-28T16:37:45.876Z,24.54
2023-01-28T16:40:20.002Z,24.58
2023-01-28T16:42:52.694Z,24.51
2023-01-28T16:45:22.570Z,24.63
2023-01-28T16:47:51.982Z,24.67
2023-01-28T16:50:22.744Z,24.71
2023-01-28T16:52:52.409Z,24.73
2023-01-28T16:55:22.278Z,24.77
2023-01-28T16:57:52.125Z,24.81
2023-01-28T17:00:27.784Z,24.83
2023-01-28T17:02:57.512Z,24.81
2023-01-28T17:05:27.919Z,24.77
2023-01-28T17:07:58.765Z,24.74
2023-01-28T17:10:28.175Z,24.74
2023-01-28T17:12:57.451Z,24.72
2023-01-28T17:15:27.277Z,24.71
2023-01-28T17:17:57.001Z,24.68
2023-01-28T17:20:26.483Z,24.67
2023-01-28T17:22:56.894Z,24.65
2023-01-28T17:25:26.869Z,24.63
2023-01-28T17:27:56.768Z,24.62
2023-01-28T17:30:27.069Z,24.61
2023-01-28T17:32:57.663Z,24.61
2023-01-28T17:35:27.620Z,24.58
2023-01-28T17:37:57.424Z,24.58
2023-01-28T17:40:27.775Z,24.56
2023-01-28T17:42:57.440Z,24.57
2023-01-28T17:45:27.686Z,24.55
2023-01-28T17:47:57.406Z,24.55
2023-01-28T17:50:27.667Z,24.55
2023-01-28T17:52:57.672Z,24.53
2023-01-28T17:55:30.789Z,24.52
2023-01-28T17:58:00.469Z,24.51
2023-01-28T18:00:30.083Z,24.49
2023-01-28T18:02:59.487Z,24.49
2023-01-28T18:05:28.945Z,24.47
2023-01-28T18:07:58.577Z,24.46
2023-01-28T18:10:27.766Z,24.45
2023-01-28T18:12:57.851Z,24.43
2023-01-28T18:15:27.886Z,24.41
2023-01-28T18:17:57.891Z,24.40
2023-01-28T18:20:27.074Z,24.38
2023-01-28T18:22:56.805Z,24.39
2023-01-28T18:25:26.814Z,24.36
2023-01-28T18:27:56.536Z,24.36
2023-01-28T18:30:27.045Z,24.35
2023-01-28T18:32:56.869Z,24.33
2023-01-28T18:35:27.006Z,24.31
2023-01-28T18:37:57.001Z,24.31
2023-01-28T18:40:27.064Z,24.31
2023-01-28T18:42:56.963Z,24.30
2023-01-28T18:45:26.970Z,24.29
2023-01-28T18:47:57.431Z,24.28
2023-01-28T18:50:26.981Z,24.29
2023-01-28T18:52:57.071Z,24.26
2023-01-28T18:55:27.102Z,24.26
2023-01-28T18:57:57.602Z,24.26
2023-01-28T19:00:28.092Z,24.25
2023-01-28T19:02:57.991Z,24.23
2023-01-28T19:05:27.777Z,24.22
2023-01-28T19:07:57.930Z,24.21
2023-01-28T20:15:11.892Z,24.53
2023-01-28T20:17:41.379Z,24.47
2023-01-28T20:20:11.433Z,24.47
2023-01-28T20:22:40.897Z,24.46
2023-01-28T20:25:10.852Z,24.46
2023-01-28T20:27:40.132Z,24.46
2023-01-28T20:30:10.453Z,24.46
2023-01-28T20:32:39.779Z,24.46
2023-01-28T20:35:09.383Z,24.44
2023-01-28T20:37:39.456Z,24.44
2023-01-28T20:40:09.443Z,24.44
2023-01-28T20:42:38.738Z,24.44
2023-01-28T20:45:08.833Z,24.44
2023-01-28T20:47:38.244Z,24.42
2023-01-28T20:50:08.199Z,24.42
2023-01-28T20:52:37.535Z,24.42
2023-01-28T20:55:07.067Z,24.42
2023-01-28T20:57:37.717Z,24.42
2023-01-28T21:00:07.481Z,24.42
2023-01-28T21:02:40.909Z,24.40
2023-01-28T21:05:10.572Z,24.39
2023-01-28T21:07:39.748Z,24.39
2023-01-28T21:10:09.120Z,24.38
2023-01-28T21:12:38.778Z,24.38
2023-01-28T21:15:09.073Z,24.38
2023-01-28T21:17:38.606Z,24.37
2023-01-28T21:20:08.856Z,24.38
2023-01-28T21:22:38.345Z,24.37
2023-01-28T21:25:08.156Z,24.36
2023-01-28T21:27:37.710Z,24.36
2023-01-28T21:30:07.814Z,24.34
2023-01-28T21:32:37.157Z,24.33
2023-01-28T21:35:06.708Z,24.35
2023-01-28T21:37:36.342Z,24.30
2023-01-28T21:40:06.148Z,24.24
2023-01-28T21:42:36.470Z,24.24
2023-01-28T21:45:06.346Z,24.24
2023-01-28T21:47:35.699Z,24.24
2023-01-28T21:50:06.298Z,24.23
2023-01-28T21:52:35.992Z,24.23
2023-01-28T21:55:05.760Z,24.22
2023-01-28T21:57:34.953Z,24.23
2023-01-28T22:00:04.573Z,24.24
2023-01-28T22:02:34.211Z,24.24
2023-01-28T22:05:03.648Z,24.24
2023-01-28T22:07:33.157Z,24.25
2023-01-28T22:10:05.008Z,24.25
2023-01-28T22:12:34.688Z,24.25
2023-01-28T22:15:04.010Z,24.25
2023-01-28T22:17:33.600Z,24.27
2023-01-28T22:20:03.221Z,24.27
2023-01-28T22:25:21.711Z,24.27
2023-01-28T22:27:51.093Z,24.28
2023-01-28T22:30:21.318Z,24.29
2023-01-28T22:32:51.008Z,24.29
2023-01-28T22:35:20.234Z,24.30
2023-01-28T22:37:49.725Z,24.30
2023-01-28T22:40:19.229Z,24.30
2023-01-28T22:42:48.691Z,24.32
2023-01-28T22:45:17.789Z,24.31
2023-01-28T22:47:47.195Z,24.32
2023-01-28T22:50:16.707Z,24.33
2023-01-28T22:52:46.051Z,24.33
2023-01-28T22:55:35.770Z,24.33
2023-01-28T22:58:09.131Z,24.34
2023-01-28T23:00:39.811Z,24.34
2023-01-28T23:03:10.542Z,24.36
2023-01-28T23:05:39.927Z,24.35
2023-01-28T23:08:12.316Z,24.35
2023-01-28T23:10:42.006Z,24.36
2023-01-28T23:13:11.420Z,24.36
2023-01-28T23:15:58.403Z,24.37
2023-01-28T23:18:44.905Z,24.37
2023-01-28T23:21:36.448Z,24.35
2023-01-28T23:24:22.216Z,24.36
2023-01-28T23:26:52.743Z,24.33
2023-01-28T23:29:23.595Z,24.34
2023-01-28T23:31:54.933Z,24.32
2023-01-28T23:34:24.639Z,24.33
2023-01-28T23:36:53.846Z,24.31
2023-01-28T23:39:23.547Z,24.31
2023-01-28T23:41:53.014Z,24.31
2023-01-28T23:44:26.276Z,24.30
2023-01-28T23:46:57.327Z,24.30
2023-01-28T23:49:27.056Z,24.29
2023-01-28T23:51:57.315Z,24.27
2023-01-28T23:54:27.035Z,24.27
2023-01-28T23:56:57.077Z,24.25
2023-01-28T23:59:27.027Z,24.25
